S/y Blue Clipper — MCRJ6 — position and weather

sailwx.info

Track history (hours):
 
Tides and Currents Weather Stations Pressure Air Temp Water Temp Dewpoint Dewpoint Depression Visibility Wind Speed Wind Dir Waves Ship Positions

S/y Blue Clipper

Last reported at 2019-Aug-22 09:26 UTC. Time now 2019-Aug-22 09:56 UTC.
Position N 59°04' E 005°52'.

Length 38 m.

Type: Sailing vessel. MMSI: 232014202.

Date/timePositionNaut miles runAvg speedWind from/ knotsBaromVisibWave heightAir tempDewpointWater temp
2019-Aug-22 09:26N 59°04' E 005°52'3 4.6
2019-Aug-22 08:48N 59°02' E 005°55'2 3.2
2019-Aug-22 08:15N 59°01' E 005°58'1 2.5
2019-Aug-22 08:00N 59°01' E 005°59'2 0.9
2019-Aug-22 05:56N 59°01' E 006°03'0 0.0
2019-Aug-22 03:14N 59°01' E 006°03'0 0.0
2019-Aug-21 21:20N 59°01' E 006°03'0 0.0
2019-Aug-21 17:50N 59°01' E 006°03'0 0.0
2019-Aug-21 14:56N 59°01' E 006°03'0 0.0
2019-Aug-21 13:50N 59°01' E 006°03'0 0.0
2019-Aug-21 13:02N 59°01' E 006°03'1 0.1
2019-Aug-21 08:17N 59°01' E 006°02'2 4.4
2019-Aug-21 07:56N 59°00' E 005°59'2 4.3
2019-Aug-21 07:28N 59°00' E 005°55'2 3.0
2019-Aug-21 06:58N 58°59' E 005°55'1 0.0
2019-Aug-20 10:30N 58°58' E 005°53'1 1.9
2019-Aug-20 09:54N 58°58' E 005°51'1 1.9
2019-Aug-20 09:28N 58°58' E 005°50'2 2.2
2019-Aug-20 08:45N 58°59' E 005°47'2 0.6
2019-Aug-20 06:00N 59°01' E 005°46'0 0.0
2019-Aug-20 05:21N 59°01' E 005°46'0 0.0
2019-Aug-20 04:51N 59°01' E 005°46'0 0.0
2019-Aug-20 00:09N 59°01' E 005°46'0 0.0
2019-Aug-19 19:30N 59°01' E 005°46'0 0.0
2019-Aug-19 18:03N 59°01' E 005°46'0 0.1
2019-Aug-19 17:51N 59°01' E 005°46'0 0.0
2019-Aug-19 17:21N 59°00' E 005°46'1 1.5
2019-Aug-19 16:59N 58°60' E 005°47'2 3.3
2019-Aug-19 16:20N 59°00' E 005°43'2 4.2
2019-Aug-19 15:54N 58°59' E 005°43'0 0.0
2019-Aug-18 20:17N 58°59' E 005°43'2 4.2
2019-Aug-18 19:54N 59°00' E 005°42'0 0.4
2019-Aug-18 19:30N 59°00' E 005°42'2 2.9
2019-Aug-18 18:56N 59°01' E 005°45'1 0.1
2019-Aug-18 10:37N 59°00' E 005°46'0 0.0
2019-Aug-17 20:12N 59°00' E 005°46'0 0.0
2019-Aug-17 19:09N 59°00' E 005°47'0 0.4
2019-Aug-17 18:55N 58°60' E 005°47'2 4.1
2019-Aug-17 18:24N 59°01' E 005°43'1 0.0
2019-Aug-16 15:56N 58°60' E 005°42'2 2.7
2019-Aug-16 15:22N 59°01' E 005°44'2 3.8
2019-Aug-16 14:55N 59°02' E 005°47'3 5.5
2019-Aug-16 14:28N 59°00' E 005°50'3 5.7
2019-Aug-16 13:52N 58°58' E 005°56'6 0.8
2019-Aug-16 06:12N 59°02' E 005°45'2 3.3
2019-Aug-16 05:33N 59°02' E 005°41'0 0.0
2019-Aug-16 04:51N 59°02' E 005°41'0 0.0
2019-Aug-16 03:03N 59°02' E 005°41'0 0.0
2019-Aug-16 02:39N 59°02' E 005°41'0 0.0
2019-Aug-16 01:54N 59°02' E 005°41'0 0.0
2019-Aug-16 01:30N 59°02' E 005°41'0 0.0
2019-Aug-16 00:22N 59°02' E 005°41'1 1.1
2019-Aug-15 23:53N 59°02' E 005°40'0 0.1
2019-Aug-15 23:26N 59°02' E 005°40'0 0.0
2019-Aug-15 21:08N 59°02' E 005°40'3 2.8
2019-Aug-15 20:05N 59°03' E 005°34'0 5.0
2019-Aug-15 20:00N 59°03' E 005°34'4 6.1
2019-Aug-15 19:23N 58°59' E 005°33'3 6.1
2019-Aug-15 18:57N 58°56' E 005°33'3 5.9
2019-Aug-15 18:30N 58°54' E 005°32'3 6.5
2019-Aug-15 18:00N 58°51' E 005°30'4 7.2
2019-Aug-15 17:26N 58°47' E 005°26'3 6.3
2019-Aug-15 16:58N 58°44' E 005°25'37 6.0
2019-Aug-15 10:47N 58°17' E 006°12'2 7.1
2019-Aug-15 10:26N 58°17' E 006°17'3 6.8
2019-Aug-15 10:00N 58°16' E 006°22'3 6.3
2019-Aug-15 09:30N 58°15' E 006°28'5 6.1
2019-Aug-15 08:38N 58°14' E 006°38'1 5.7
2019-Aug-15 08:30N 58°13' E 006°39'2 0.1
2019-Aug-14 14:16N 58°14' E 006°41'1 5.6
2019-Aug-14 14:00N 58°12' E 006°41'3 6.5
2019-Aug-14 13:30N 58°10' E 006°36'3 6.1
2019-Aug-14 13:00N 58°08' E 006°32'3 5.3
2019-Aug-14 12:29N 58°06' E 006°33'3 5.2
2019-Aug-14 12:00N 58°04' E 006°35'2 4.7
2019-Aug-14 11:30N 58°02' E 006°39'3 5.1
2019-Aug-14 11:00N 58°02' E 006°44'3 5.2
2019-Aug-14 10:30N 58°01' E 006°48'3 5.1
2019-Aug-14 10:00N 58°00' E 006°53'25 1.3
2019-Aug-13 14:51N 58°01' E 007°40'5 3.8
2019-Aug-13 13:32N 58°02' E 007°49'1 4.0
2019-Aug-13 13:22N 58°02' E 007°50'1 3.5
2019-Aug-13 13:00N 58°03' E 007°53'2 3.4
2019-Aug-13 12:30N 58°04' E 007°55'2 3.5
2019-Aug-13 12:00N 58°05' E 007°58'2 4.6
2019-Aug-13 11:30N 58°06' E 008°02'2 4.4
2019-Aug-13 11:00N 58°07' E 008°06'1 1.9
2019-Aug-13 10:31N 58°06' E 008°07'3 4.8
2019-Aug-13 09:56N 58°06' E 008°13'6 4.5
2019-Aug-13 08:36N 58°10' E 008°21'1 4.9
2019-Aug-13 08:26N 58°11' E 008°22'2 4.5
2019-Aug-13 07:55N 58°13' E 008°24'1 0.1
2019-Aug-12 14:15N 58°13' E 008°27'1 3.0
2019-Aug-12 13:55N 58°13' E 008°29'1 2.6
2019-Aug-12 13:25N 58°13' E 008°31'1 2.9
2019-Aug-12 12:55N 58°14' E 008°33'2 3.2
2019-Aug-12 12:25N 58°16' E 008°35'1 3.2
2019-Aug-12 12:00N 58°16' E 008°37'  
Track history (hours):
 
Tides and Currents Weather Stations Pressure Air Temp Water Temp Dewpoint Dewpoint Depression Visibility Wind Speed Wind Dir Waves Ship Positions

S/y Blue Clipper

Last reported at 2019-Aug-22 09:26 UTC. Time now 2019-Aug-22 09:56 UTC.
Position N 59°04' E 005°52'.

Length 38 m.

Type: Sailing vessel. MMSI: 232014202.

Date/timePositionNaut miles runAvg speedWind from/ knotsBaromVisibWave heightAir tempDewpointWater temp
2019-Aug-22 09:26N 59°04' E 005°52'3 4.6
2019-Aug-22 08:48N 59°02' E 005°55'2 3.2
2019-Aug-22 08:15N 59°01' E 005°58'1 2.5
2019-Aug-22 08:00N 59°01' E 005°59'2 0.9
2019-Aug-22 05:56N 59°01' E 006°03'0 0.0
2019-Aug-22 03:14N 59°01' E 006°03'0 0.0
2019-Aug-21 21:20N 59°01' E 006°03'0 0.0
2019-Aug-21 17:50N 59°01' E 006°03'0 0.0
2019-Aug-21 14:56N 59°01' E 006°03'0 0.0
2019-Aug-21 13:50N 59°01' E 006°03'0 0.0
2019-Aug-21 13:02N 59°01' E 006°03'1 0.1
2019-Aug-21 08:17N 59°01' E 006°02'2 4.4
2019-Aug-21 07:56N 59°00' E 005°59'2 4.3
2019-Aug-21 07:28N 59°00' E 005°55'2 3.0
2019-Aug-21 06:58N 58°59' E 005°55'1 0.0
2019-Aug-20 10:30N 58°58' E 005°53'1 1.9
2019-Aug-20 09:54N 58°58' E 005°51'1 1.9
2019-Aug-20 09:28N 58°58' E 005°50'2 2.2
2019-Aug-20 08:45N 58°59' E 005°47'2 0.6
2019-Aug-20 06:00N 59°01' E 005°46'0 0.0
2019-Aug-20 05:21N 59°01' E 005°46'0 0.0
2019-Aug-20 04:51N 59°01' E 005°46'0 0.0
2019-Aug-20 00:09N 59°01' E 005°46'0 0.0
2019-Aug-19 19:30N 59°01' E 005°46'0 0.0
2019-Aug-19 18:03N 59°01' E 005°46'0 0.1
2019-Aug-19 17:51N 59°01' E 005°46'0 0.0
2019-Aug-19 17:21N 59°00' E 005°46'1 1.5
2019-Aug-19 16:59N 58°60' E 005°47'2 3.3
2019-Aug-19 16:20N 59°00' E 005°43'2 4.2
2019-Aug-19 15:54N 58°59' E 005°43'0 0.0
2019-Aug-18 20:17N 58°59' E 005°43'2 4.2
2019-Aug-18 19:54N 59°00' E 005°42'0 0.4
2019-Aug-18 19:30N 59°00' E 005°42'2 2.9
2019-Aug-18 18:56N 59°01' E 005°45'1 0.1
2019-Aug-18 10:37N 59°00' E 005°46'0 0.0
2019-Aug-17 20:12N 59°00' E 005°46'0 0.0
2019-Aug-17 19:09N 59°00' E 005°47'0 0.4
2019-Aug-17 18:55N 58°60' E 005°47'2 4.1
2019-Aug-17 18:24N 59°01' E 005°43'1 0.0
2019-Aug-16 15:56N 58°60' E 005°42'2 2.7
2019-Aug-16 15:22N 59°01' E 005°44'2 3.8
2019-Aug-16 14:55N 59°02' E 005°47'3 5.5
2019-Aug-16 14:28N 59°00' E 005°50'3 5.7
2019-Aug-16 13:52N 58°58' E 005°56'6 0.8
2019-Aug-16 06:12N 59°02' E 005°45'2 3.3
2019-Aug-16 05:33N 59°02' E 005°41'0 0.0
2019-Aug-16 04:51N 59°02' E 005°41'0 0.0
2019-Aug-16 03:03N 59°02' E 005°41'0 0.0
2019-Aug-16 02:39N 59°02' E 005°41'0 0.0
2019-Aug-16 01:54N 59°02' E 005°41'0 0.0
2019-Aug-16 01:30N 59°02' E 005°41'0 0.0
2019-Aug-16 00:22N 59°02' E 005°41'1 1.1
2019-Aug-15 23:53N 59°02' E 005°40'0 0.1
2019-Aug-15 23:26N 59°02' E 005°40'0 0.0
2019-Aug-15 21:08N 59°02' E 005°40'3 2.8
2019-Aug-15 20:05N 59°03' E 005°34'0 5.0
2019-Aug-15 20:00N 59°03' E 005°34'4 6.1
2019-Aug-15 19:23N 58°59' E 005°33'3 6.1
2019-Aug-15 18:57N 58°56' E 005°33'3 5.9
2019-Aug-15 18:30N 58°54' E 005°32'3 6.5
2019-Aug-15 18:00N 58°51' E 005°30'4 7.2
2019-Aug-15 17:26N 58°47' E 005°26'3 6.3
2019-Aug-15 16:58N 58°44' E 005°25'37 6.0
2019-Aug-15 10:47N 58°17' E 006°12'2 7.1
2019-Aug-15 10:26N 58°17' E 006°17'3 6.8
2019-Aug-15 10:00N 58°16' E 006°22'3 6.3
2019-Aug-15 09:30N 58°15' E 006°28'5 6.1
2019-Aug-15 08:38N 58°14' E 006°38'1 5.7
2019-Aug-15 08:30N 58°13' E 006°39'2 0.1
2019-Aug-14 14:16N 58°14' E 006°41'1 5.6
2019-Aug-14 14:00N 58°12' E 006°41'3 6.5
2019-Aug-14 13:30N 58°10' E 006°36'3 6.1
2019-Aug-14 13:00N 58°08' E 006°32'3 5.3
2019-Aug-14 12:29N 58°06' E 006°33'3 5.2
2019-Aug-14 12:00N 58°04' E 006°35'2 4.7
2019-Aug-14 11:30N 58°02' E 006°39'3 5.1
2019-Aug-14 11:00N 58°02' E 006°44'3 5.2
2019-Aug-14 10:30N 58°01' E 006°48'3 5.1
2019-Aug-14 10:00N 58°00' E 006°53'25 1.3
2019-Aug-13 14:51N 58°01' E 007°40'5 3.8
2019-Aug-13 13:32N 58°02' E 007°49'1 4.0
2019-Aug-13 13:22N 58°02' E 007°50'1 3.5
2019-Aug-13 13:00N 58°03' E 007°53'2 3.4
2019-Aug-13 12:30N 58°04' E 007°55'2 3.5
2019-Aug-13 12:00N 58°05' E 007°58'2 4.6
2019-Aug-13 11:30N 58°06' E 008°02'2 4.4
2019-Aug-13 11:00N 58°07' E 008°06'1 1.9
2019-Aug-13 10:31N 58°06' E 008°07'3 4.8
2019-Aug-13 09:56N 58°06' E 008°13'6 4.5
2019-Aug-13 08:36N 58°10' E 008°21'1 4.9
2019-Aug-13 08:26N 58°11' E 008°22'2 4.5
2019-Aug-13 07:55N 58°13' E 008°24'1 0.1
2019-Aug-12 14:15N 58°13' E 008°27'1 3.0
2019-Aug-12 13:55N 58°13' E 008°29'1 2.6
2019-Aug-12 13:25N 58°13' E 008°31'1 2.9
2019-Aug-12 12:55N 58°14' E 008°33'2 3.2
2019-Aug-12 12:25N 58°16' E 008°35'1 3.2
2019-Aug-12 12:00N 58°16' E 008°37'  

Dump ship's entire track history